createdAt,value
2019-01-11T00:02:30.094Z,2.27
2019-01-11T00:05:00.342Z,2.00
2019-01-11T00:07:30.535Z,2.13
2019-01-11T00:10:00.734Z,2.43
2019-01-11T00:12:31.149Z,1.87
2019-01-11T00:15:01.423Z,2.53
2019-01-11T00:17:31.736Z,2.07
2019-01-11T00:20:03.774Z,1.80
2019-01-11T00:22:34.086Z,2.27
2019-01-11T00:25:04.500Z,2.13
2019-01-11T00:27:34.530Z,2.00
2019-01-11T00:30:06.136Z,2.30
2019-01-11T00:32:36.336Z,1.80
2019-01-11T00:35:07.567Z,2.20
2019-01-11T00:37:37.569Z,2.03
2019-01-11T00:40:07.805Z,2.93
2019-01-11T00:42:37.948Z,2.03
2019-01-11T00:45:08.500Z,1.90
2019-01-11T00:47:38.539Z,1.70
2019-01-11T00:50:09.019Z,1.50
2019-01-11T00:52:39.188Z,2.07
2019-01-11T00:55:09.486Z,2.23
2019-01-11T00:57:39.945Z,2.33
2019-01-11T01:00:14.400Z,1.83
2019-01-11T01:02:44.609Z,1.90
2019-01-11T01:05:15.010Z,1.90
2019-01-11T01:07:45.048Z,2.10
2019-01-11T01:10:15.504Z,1.77
2019-01-11T01:12:45.593Z,2.90
2019-01-11T01:15:15.832Z,2.23
2019-01-11T01:17:46.027Z,1.90
2019-01-11T01:20:16.175Z,1.97
2019-01-11T01:22:46.508Z,2.20
2019-01-11T01:25:17.255Z,7.60
2019-01-11T01:27:47.477Z,2.30
2019-01-11T01:30:18.572Z,1.90
2019-01-11T01:32:48.635Z,2.10
2019-01-11T01:35:18.676Z,1.93
2019-01-11T01:37:48.873Z,2.43
2019-01-11T01:40:18.970Z,1.90
2019-01-11T01:42:49.258Z,1.67
2019-01-11T01:45:19.385Z,1.67
2019-01-11T01:47:49.539Z,1.67
2019-01-11T01:50:19.552Z,1.60
2019-01-11T01:52:49.651Z,1.80
2019-01-11T01:55:20.024Z,1.77
2019-01-11T01:57:50.055Z,2.00
2019-01-11T02:00:20.206Z,1.83
2019-01-11T02:02:50.249Z,2.13
2019-01-11T02:05:20.511Z,1.97
2019-01-11T02:07:50.610Z,2.00
2019-01-11T02:10:20.783Z,1.80
2019-01-11T02:12:50.806Z,1.73
2019-01-11T02:15:20.978Z,1.83
2019-01-11T02:17:51.195Z,1.80
2019-01-11T02:20:21.327Z,2.23
2019-01-11T02:22:51.342Z,1.70
2019-01-11T02:25:21.379Z,2.20
2019-01-11T02:27:51.546Z,1.60
2019-01-11T02:30:23.276Z,1.33
2019-01-11T02:32:53.728Z,1.90
2019-01-11T02:35:23.990Z,1.53
2019-01-11T02:37:54.201Z,2.10
2019-01-11T02:40:24.276Z,1.70
2019-01-11T02:42:54.363Z,1.53
2019-01-11T02:45:24.388Z,1.90
2019-01-11T02:47:54.556Z,1.60
2019-01-11T02:50:24.710Z,2.33
2019-01-11T02:52:54.927Z,2.10
2019-01-11T02:55:25.113Z,2.30
2019-01-11T02:57:55.626Z,2.03
2019-01-11T03:00:25.709Z,2.00
2019-01-11T03:02:55.901Z,2.33
2019-01-11T03:05:26.370Z,2.30
2019-01-11T03:07:56.415Z,2.53
2019-01-11T03:10:26.523Z,2.03
2019-01-11T03:12:56.697Z,2.30
2019-01-11T03:15:26.883Z,3.10
2019-01-11T03:17:56.930Z,2.70
2019-01-11T03:20:27.030Z,2.63
2019-01-11T03:22:57.197Z,2.30
2019-01-11T03:25:27.420Z,2.00
2019-01-11T03:27:57.495Z,2.30
2019-01-11T03:30:27.804Z,1.90
2019-01-11T03:32:57.996Z,2.23
2019-01-11T03:35:28.139Z,2.17
2019-01-11T03:37:58.374Z,2.33
2019-01-11T03:40:28.400Z,2.10
2019-01-11T03:42:58.493Z,2.33
2019-01-11T03:45:29.998Z,2.53
2019-01-11T03:48:00.397Z,2.10
2019-01-11T03:50:30.493Z,2.47
2019-01-11T03:53:00.631Z,2.17
2019-01-11T03:55:31.065Z,2.37
2019-01-11T03:58:01.277Z,2.20
2019-01-11T04:00:31.329Z,2.30
2019-01-11T04:03:01.388Z,2.53
2019-01-11T04:05:31.455Z,2.30
2019-01-11T04:08:01.603Z,2.47
2019-01-11T04:10:31.820Z,2.90
2019-01-11T04:13:02.012Z,3.43
2019-01-11T04:15:32.073Z,2.73
2019-01-11T04:18:23.963Z,2.40
2019-01-11T04:20:54.216Z,2.43
2019-01-11T04:23:24.683Z,3.37
2019-01-11T04:25:54.717Z,4.10
2019-01-11T04:28:24.764Z,2.33
2019-01-11T04:30:54.792Z,2.40
2019-01-11T04:33:24.896Z,3.90
2019-01-11T04:35:55.068Z,3.00
2019-01-11T04:38:25.160Z,3.17
2019-01-11T04:40:55.334Z,2.87
2019-01-11T04:43:25.525Z,3.67
2019-01-11T04:45:55.717Z,3.53
2019-01-11T04:48:26.050Z,3.47
2019-01-11T04:50:56.325Z,3.70
2019-01-11T04:53:26.500Z,3.37
2019-01-11T04:55:56.556Z,3.13
2019-01-11T04:58:26.568Z,3.10
2019-01-11T05:00:56.739Z,2.83
2019-01-11T05:03:26.837Z,5.43
2019-01-11T05:05:56.865Z,3.10
2019-01-11T05:08:27.123Z,3.27
2019-01-11T05:10:57.345Z,8.97
2019-01-11T05:13:37.588Z,3.97
2019-01-11T05:16:07.666Z,3.60
2019-01-11T05:18:38.713Z,4.07
2019-01-11T05:21:08.836Z,4.03
2019-01-11T05:23:38.929Z,3.77
2019-01-11T05:26:09.055Z,3.73
2019-01-11T05:28:39.117Z,4.00
2019-01-11T05:31:09.302Z,4.03
2019-01-11T05:33:39.482Z,4.57
2019-01-11T05:36:09.614Z,4.80
2019-01-11T05:38:39.689Z,4.07
2019-01-11T05:41:09.863Z,3.87
2019-01-11T05:43:40.074Z,3.90
2019-01-11T05:46:10.288Z,4.40
2019-01-11T05:48:40.713Z,4.07
2019-01-11T05:51:10.902Z,9.20
2019-01-11T05:53:41.041Z,4.60
2019-01-11T05:56:13.425Z,4.60
2019-01-11T05:59:02.524Z,4.77
2019-01-11T06:01:32.703Z,8.10
2019-01-11T06:04:04.739Z,5.40
2019-01-11T06:07:05.706Z,6.13
2019-01-11T06:09:35.888Z,5.37
2019-01-11T06:12:06.111Z,8.33
2019-01-11T06:14:36.299Z,4.93
2019-01-11T06:17:06.494Z,5.17
2019-01-11T06:19:36.567Z,4.97
2019-01-11T06:22:06.674Z,4.70
2019-01-11T06:24:36.690Z,8.67
2019-01-11T06:27:07.159Z,6.57
2019-01-11T06:29:37.506Z,6.37
2019-01-11T06:32:07.768Z,6.20
2019-01-11T06:34:37.777Z,5.60
2019-01-11T06:37:07.964Z,5.77
2019-01-11T06:39:38.001Z,4.70
2019-01-11T06:42:15.152Z,6.20
2019-01-11T06:44:45.187Z,9.83
2019-01-11T06:47:15.258Z,7.53
2019-01-11T06:49:45.465Z,6.20
2019-01-11T06:52:15.565Z,5.07
2019-01-11T06:54:45.757Z,6.10
2019-01-11T06:57:15.874Z,5.27
2019-01-11T06:59:46.107Z,6.70
2019-01-11T07:02:16.219Z,6.60
2019-01-11T07:04:46.354Z,5.40
2019-01-11T07:07:16.431Z,5.67
2019-01-11T07:09:46.495Z,6.23
2019-01-11T07:12:16.600Z,4.70
2019-01-11T07:14:46.849Z,6.00
2019-01-11T07:17:16.878Z,5.50
2019-01-11T07:19:46.923Z,5.80
2019-01-11T07:22:17.345Z,6.60
2019-01-11T07:24:47.700Z,5.80
2019-01-11T07:27:17.736Z,7.27
2019-01-11T07:29:47.959Z,5.27
2019-01-11T07:32:18.200Z,5.67
2019-01-11T07:34:48.519Z,7.47
2019-01-11T07:37:18.671Z,5.67
2019-01-11T07:39:48.773Z,6.53
2019-01-11T07:42:19.230Z,5.93
2019-01-11T07:44:49.382Z,6.80
2019-01-11T07:47:19.625Z,6.63
2019-01-11T07:49:50.016Z,8.03
2019-01-11T07:52:21.027Z,6.47
2019-01-11T07:54:51.467Z,7.03
2019-01-11T07:57:21.648Z,6.57
2019-01-11T07:59:51.688Z,7.40
2019-01-11T08:02:21.831Z,6.23
2019-01-11T08:04:51.948Z,7.93
2019-01-11T08:07:22.148Z,7.63
2019-01-11T08:09:52.359Z,8.03
2019-01-11T08:12:22.578Z,9.23
2019-01-11T08:14:52.982Z,7.40
2019-01-11T08:17:23.175Z,8.17
2019-01-11T08:19:53.324Z,7.70
2019-01-11T08:22:42.190Z,7.67
2019-01-11T08:25:13.036Z,7.93
2019-01-11T08:27:44.227Z,7.70
2019-01-11T08:30:16.704Z,8.00
2019-01-11T08:32:47.707Z,10.37
2019-01-11T08:35:18.043Z,8.80
2019-01-11T08:37:48.214Z,9.17
2019-01-11T08:40:18.281Z,8.40
2019-01-11T08:42:48.307Z,8.63
2019-01-11T08:45:18.387Z,9.00
2019-01-11T08:47:48.452Z,8.63
2019-01-11T08:50:19.235Z,8.40
2019-01-11T08:52:49.372Z,9.80
2019-01-11T08:55:19.592Z,8.90
2019-01-11T08:57:49.782Z,9.77
2019-01-11T09:00:19.923Z,8.93
2019-01-11T09:02:50.034Z,10.57
2019-01-11T09:05:20.050Z,10.10
2019-01-11T09:07:50.302Z,10.00
2019-01-11T09:10:23.280Z,10.40
2019-01-11T09:12:52.263Z,9.03
2019-01-11T09:15:22.319Z,9.57
2019-01-11T09:18:14.190Z,9.30
2019-01-11T09:20:44.489Z,12.03
2019-01-11T09:23:14.655Z,9.97
2019-01-11T09:25:44.863Z,11.93
2019-01-11T09:28:14.958Z,10.87
2019-01-11T09:30:45.163Z,11.07
2019-01-11T09:33:20.344Z,9.53
2019-01-11T09:35:47.195Z,11.00
2019-01-11T09:38:17.500Z,10.40
2019-01-11T09:40:47.814Z,10.43
2019-01-11T09:43:18.015Z,10.77
2019-01-11T09:45:48.045Z,9.87
2019-01-11T09:48:18.147Z,10.87
2019-01-11T09:50:48.232Z,10.67
2019-01-11T09:53:18.267Z,11.73
2019-01-11T09:55:48.455Z,10.80
2019-01-11T09:58:18.486Z,11.60
2019-01-11T10:00:48.576Z,10.57
2019-01-11T10:03:18.779Z,11.20
2019-01-11T10:05:48.912Z,10.00
2019-01-11T10:08:19.147Z,10.40
2019-01-11T10:10:49.327Z,10.57
2019-01-11T10:13:20.513Z,11.07
2019-01-11T10:15:50.614Z,10.50
2019-01-11T10:18:20.777Z,10.00
2019-01-11T10:20:51.521Z,11.33
2019-01-11T10:23:21.707Z,11.57
2019-01-11T10:25:51.759Z,12.30
2019-01-11T10:28:21.957Z,12.13
2019-01-11T10:30:52.176Z,10.47
2019-01-11T10:33:22.379Z,12.47
2019-01-11T10:35:53.552Z,11.97
2019-01-11T10:38:23.721Z,11.77
2019-01-11T10:40:53.902Z,13.53
2019-01-11T10:43:24.085Z,12.77
2019-01-11T10:45:54.273Z,10.97
2019-01-11T10:48:25.615Z,11.53
2019-01-11T10:50:55.920Z,12.80
2019-01-11T10:53:26.043Z,12.63
2019-01-11T10:55:56.101Z,11.50
2019-01-11T10:58:26.273Z,12.17
2019-01-11T11:00:56.398Z,13.07
2019-01-11T11:03:26.551Z,11.10
2019-01-11T11:05:56.733Z,11.40
2019-01-11T11:08:26.884Z,11.33
2019-01-11T11:10:56.935Z,11.87
2019-01-11T11:13:27.091Z,11.57
2019-01-11T11:15:58.857Z,11.13
2019-01-11T11:18:29.015Z,10.80
2019-01-11T11:20:59.514Z,10.33
2019-01-11T11:23:29.631Z,16.27
2019-01-11T11:25:59.799Z,11.40
2019-01-11T11:28:29.921Z,11.13
2019-01-11T11:31:00.499Z,12.13
2019-01-11T11:33:30.744Z,10.73
2019-01-11T11:36:01.145Z,10.93
2019-01-11T11:38:31.295Z,12.17
2019-01-11T11:41:01.373Z,12.27
2019-01-11T11:43:31.651Z,13.03
2019-01-11T11:46:01.838Z,12.63
2019-01-11T11:48:32.207Z,14.03
2019-01-11T11:51:02.381Z,12.90
2019-01-11T11:53:32.573Z,12.50
2019-01-11T11:56:02.742Z,13.60
2019-01-11T11:58:32.896Z,13.93
2019-01-11T12:01:04.317Z,12.67
2019-01-11T12:03:35.693Z,11.80
2019-01-11T12:06:05.930Z,13.23
2019-01-11T12:08:36.061Z,14.13
2019-01-11T12:11:06.360Z,14.77
2019-01-11T12:13:36.499Z,13.83
2019-01-11T12:16:06.687Z,13.63
2019-01-11T12:18:36.896Z,12.73
2019-01-11T12:21:07.177Z,12.23
2019-01-11T12:23:37.324Z,13.80
2019-01-11T12:26:07.647Z,13.97
2019-01-11T12:28:37.907Z,11.80
2019-01-11T12:31:08.120Z,11.53
2019-01-11T12:33:38.268Z,12.97
2019-01-11T12:36:08.762Z,12.70
2019-01-11T12:38:38.820Z,13.63
2019-01-11T12:41:10.353Z,14.23
2019-01-11T12:43:40.553Z,13.77
2019-01-11T12:46:11.686Z,13.80
2019-01-11T12:48:41.951Z,13.27
2019-01-11T12:51:12.227Z,12.97
2019-01-11T12:53:42.446Z,14.27
2019-01-11T12:56:12.578Z,15.13
2019-01-11T12:58:42.907Z,16.27
2019-01-11T13:01:12.937Z,15.70
2019-01-11T13:03:43.092Z,15.27
2019-01-11T13:06:13.486Z,15.60
2019-01-11T13:08:43.676Z,14.87
2019-01-11T13:11:13.851Z,15.60
2019-01-11T13:13:43.949Z,15.30
2019-01-11T13:16:14.076Z,15.83
2019-01-11T13:18:44.221Z,16.80
2019-01-11T13:21:14.271Z,16.53
2019-01-11T13:23:44.453Z,14.87
2019-01-11T13:26:14.578Z,16.97
2019-01-11T13:28:45.037Z,14.17
2019-01-11T13:31:15.091Z,15.93
2019-01-11T13:33:45.216Z,16.57
2019-01-11T13:36:20.534Z,15.93
2019-01-11T13:38:50.889Z,15.87
2019-01-11T13:41:21.052Z,15.13
2019-01-11T13:43:51.313Z,15.80
2019-01-11T13:46:21.536Z,14.83
2019-01-11T13:48:51.597Z,14.87
2019-01-11T13:51:21.821Z,15.73
2019-01-11T13:53:51.975Z,19.30
2019-01-11T13:56:22.103Z,16.73
2019-01-11T13:58:52.219Z,17.20
2019-01-11T14:01:22.394Z,14.77
2019-01-11T14:03:52.415Z,15.17
2019-01-11T14:06:23.302Z,15.57
2019-01-11T14:08:53.422Z,15.43
2019-01-11T14:11:23.629Z,16.43
2019-01-11T14:13:53.945Z,14.83
2019-01-11T14:16:24.138Z,16.90
2019-01-11T14:18:54.363Z,16.50
2019-01-11T14:21:24.519Z,14.87
2019-01-11T14:23:54.755Z,17.93
2019-01-11T14:26:24.820Z,15.80
2019-01-11T14:28:55.078Z,15.83
2019-01-11T14:31:25.166Z,13.73
2019-01-11T14:33:55.494Z,16.00
2019-01-11T14:36:25.549Z,16.30
2019-01-11T14:38:55.591Z,17.10
2019-01-11T14:41:26.194Z,14.27
2019-01-11T14:43:56.530Z,17.20
2019-01-11T14:46:26.614Z,17.07
2019-01-11T14:48:56.806Z,18.43
2019-01-11T14:51:26.978Z,15.17
2019-01-11T14:53:57.258Z,14.37
2019-01-11T14:56:27.688Z,14.40
2019-01-11T14:58:57.856Z,17.37
2019-01-11T15:01:28.208Z,14.90
2019-01-11T15:03:58.500Z,14.57
2019-01-11T15:06:28.852Z,14.07
2019-01-11T15:08:59.044Z,13.60
2019-01-11T15:11:29.156Z,15.57
2019-01-11T15:13:59.303Z,15.30
2019-01-11T15:16:29.458Z,14.33
2019-01-11T15:18:59.819Z,13.37
2019-01-11T15:21:29.948Z,12.60
2019-01-11T15:24:00.089Z,12.53
2019-01-11T15:26:30.316Z,14.50
2019-01-11T15:29:00.448Z,13.27
2019-01-11T15:31:30.719Z,13.40
2019-01-11T15:34:00.915Z,15.27
2019-01-11T15:36:31.222Z,13.87
2019-01-11T15:39:01.375Z,14.83
2019-01-11T15:41:33.069Z,13.27
2019-01-11T15:44:03.110Z,13.63
2019-01-11T15:46:33.324Z,14.37
2019-01-11T15:49:03.501Z,15.67
2019-01-11T15:51:33.912Z,14.17
2019-01-11T15:54:04.957Z,12.63
2019-01-11T15:56:34.986Z,14.30
2019-01-11T15:59:05.289Z,14.37
2019-01-11T16:01:35.405Z,13.77
2019-01-11T16:04:09.136Z,12.13
2019-01-11T16:06:41.197Z,12.37
2019-01-11T16:10:15.245Z,12.87
2019-01-11T16:13:15.338Z,14.13
2019-01-11T16:16:24.953Z,12.77
2019-01-11T16:18:56.801Z,13.50
2019-01-11T16:21:27.009Z,14.10
2019-01-11T16:23:57.057Z,14.17
2019-01-11T16:26:27.178Z,14.83
2019-01-11T16:28:57.350Z,13.80
2019-01-11T16:31:27.921Z,14.33
2019-01-11T16:33:58.037Z,13.50
2019-01-11T16:36:28.117Z,13.90
2019-01-11T16:38:58.200Z,14.40
2019-01-11T16:41:28.393Z,14.10
2019-01-11T16:43:58.597Z,11.73
2019-01-11T16:46:28.670Z,13.77
2019-01-11T16:48:58.805Z,13.20
2019-01-11T16:51:28.875Z,11.10
2019-01-11T16:53:59.249Z,14.67
2019-01-11T16:56:29.697Z,12.00
2019-01-11T16:58:59.723Z,12.97
2019-01-11T17:01:29.902Z,15.90
2019-01-11T17:04:00.006Z,13.17
2019-01-11T17:06:30.175Z,13.00
2019-01-11T17:09:00.557Z,11.33
2019-01-11T17:11:31.227Z,10.80
2019-01-11T17:14:01.407Z,15.87
2019-01-11T17:16:31.660Z,12.77
2019-01-11T17:19:01.811Z,14.73
2019-01-11T17:21:32.071Z,11.23
2019-01-11T17:24:02.264Z,12.87
2019-01-11T17:26:32.488Z,10.50
2019-01-11T17:29:02.683Z,12.60
2019-01-11T17:31:32.866Z,11.03
2019-01-11T17:34:03.083Z,12.47
2019-01-11T17:36:33.171Z,12.97
2019-01-11T17:39:03.797Z,12.33
2019-01-11T17:41:34.125Z,12.80
2019-01-11T17:44:04.632Z,11.73
2019-01-11T17:46:34.855Z,14.17
2019-01-11T17:49:05.450Z,12.93
2019-01-11T17:51:35.629Z,14.17
2019-01-11T17:54:05.739Z,11.93
2019-01-11T17:56:36.204Z,13.17
2019-01-11T17:59:06.490Z,13.60
2019-01-11T18:01:37.750Z,13.40
2019-01-11T18:04:08.018Z,14.27
2019-01-11T18:06:38.481Z,15.03
2019-01-11T18:09:08.973Z,14.80
2019-01-11T18:11:39.301Z,13.27
2019-01-11T18:14:09.594Z,12.80
2019-01-11T18:16:39.737Z,12.93
2019-01-11T18:19:09.957Z,12.17
2019-01-11T18:21:40.097Z,13.23
2019-01-11T18:24:10.288Z,13.33
2019-01-11T18:26:41.090Z,11.70
2019-01-11T18:29:11.303Z,13.57
2019-01-11T18:31:41.750Z,13.37
2019-01-11T18:34:11.994Z,13.87
2019-01-11T18:36:42.262Z,14.70
2019-01-11T18:39:12.542Z,14.83
2019-01-11T18:41:42.820Z,13.77
2019-01-11T18:44:13.053Z,15.27
2019-01-11T18:46:43.087Z,13.90
2019-01-11T18:49:13.341Z,14.50
2019-01-11T18:51:43.580Z,11.50
2019-01-11T18:54:14.918Z,12.33
2019-01-11T18:56:45.288Z,12.40
2019-01-11T18:59:15.446Z,13.37
2019-01-11T19:01:45.702Z,11.83
2019-01-11T19:04:15.829Z,13.37
2019-01-11T19:06:46.122Z,11.83
2019-01-11T19:09:16.298Z,12.13
2019-01-11T19:11:46.449Z,12.23
2019-01-11T19:14:16.661Z,13.27
2019-01-11T19:16:46.986Z,12.27
2019-01-11T19:19:17.070Z,11.90
2019-01-11T19:21:47.211Z,11.20
2019-01-11T19:24:17.442Z,12.83
2019-01-11T19:26:47.703Z,12.73
2019-01-11T19:29:17.897Z,12.37
2019-01-11T19:31:47.963Z,13.20
2019-01-11T19:34:18.156Z,13.73
2019-01-11T19:36:48.653Z,13.33
2019-01-11T19:39:18.936Z,11.53
2019-01-11T19:41:49.413Z,13.33
2019-01-11T19:44:19.648Z,12.47
2019-01-11T19:46:49.845Z,12.90
2019-01-11T19:49:19.920Z,12.10
2019-01-11T19:51:50.096Z,12.17
2019-01-11T19:54:20.341Z,10.73
2019-01-11T19:56:50.702Z,10.67
2019-01-11T19:59:21.758Z,12.33
2019-01-11T20:01:52.755Z,13.20
2019-01-11T20:04:22.931Z,13.27
2019-01-11T20:06:53.020Z,14.07
2019-01-11T20:09:23.042Z,13.93
2019-01-11T20:11:53.261Z,12.90
2019-01-11T20:14:23.448Z,11.53
2019-01-11T20:16:53.630Z,12.07
2019-01-11T20:19:23.859Z,12.27
2019-01-11T20:21:53.962Z,12.67
2019-01-11T20:24:24.114Z,12.53
2019-01-11T20:26:54.374Z,12.63
2019-01-11T20:29:24.676Z,12.73
2019-01-11T20:31:54.766Z,12.17
2019-01-11T20:34:25.035Z,14.47
2019-01-11T20:37:05.391Z,12.50
2019-01-11T20:39:35.587Z,12.97
2019-01-11T20:42:05.963Z,12.60
2019-01-11T20:44:36.359Z,12.60
2019-01-11T20:47:06.712Z,13.00
2019-01-11T20:49:36.931Z,13.07
2019-01-11T20:52:07.412Z,11.20
2019-01-11T20:54:37.470Z,11.63
2019-01-11T20:57:07.938Z,11.47
2019-01-11T20:59:37.980Z,11.73
2019-01-11T21:02:08.286Z,11.63
2019-01-11T21:04:38.630Z,12.23
2019-01-11T21:07:08.681Z,12.87
2019-01-11T21:09:38.857Z,11.77
2019-01-11T21:12:09.024Z,13.17
2019-01-11T21:14:39.232Z,11.33
2019-01-11T21:17:09.418Z,11.80
2019-01-11T21:19:39.524Z,11.60
2019-01-11T21:22:09.834Z,11.00
2019-01-11T21:24:40.121Z,11.50
2019-01-11T21:27:10.275Z,11.23
2019-01-11T21:29:40.446Z,10.67
2019-01-11T21:32:10.782Z,12.43
2019-01-11T21:34:40.820Z,11.87
2019-01-11T21:37:11.055Z,11.67
2019-01-11T21:39:41.177Z,10.63
2019-01-11T21:42:11.634Z,11.77
2019-01-11T21:44:41.669Z,10.90
2019-01-11T21:47:11.832Z,11.00
2019-01-11T21:49:42.077Z,10.00
2019-01-11T21:52:12.217Z,11.57
2019-01-11T21:54:42.502Z,9.93
2019-01-11T21:57:12.712Z,10.27
2019-01-11T21:59:42.898Z,9.53
2019-01-11T22:02:13.200Z,10.93
2019-01-11T22:04:43.527Z,10.33
2019-01-11T22:07:13.706Z,9.93
2019-01-11T22:09:44.136Z,9.33
2019-01-11T22:12:15.089Z,10.90
2019-01-11T22:14:45.306Z,31.93
2019-01-11T22:17:15.886Z,16.03
2019-01-11T22:19:46.395Z,11.90
2019-01-11T22:22:16.506Z,11.53
2019-01-11T22:24:46.628Z,11.20
2019-01-11T22:27:16.794Z,12.50
2019-01-11T22:29:47.023Z,11.33
2019-01-11T22:32:17.784Z,11.00
2019-01-11T22:34:48.107Z,11.67
2019-01-11T22:37:18.129Z,11.77
2019-01-11T22:39:48.223Z,10.23
2019-01-11T22:42:18.399Z,12.03
2019-01-11T22:44:48.750Z,10.37
2019-01-11T22:47:19.151Z,10.83
2019-01-11T22:49:49.340Z,10.23
2019-01-11T22:52:19.835Z,10.07
2019-01-11T22:54:49.973Z,10.40
2019-01-11T22:57:20.296Z,11.23
2019-01-11T22:59:50.511Z,10.13
2019-01-11T23:02:32.309Z,10.20
2019-01-11T23:05:02.534Z,11.23
2019-01-11T23:07:43.417Z,10.37
2019-01-11T23:11:21.712Z,10.47
2019-01-11T23:13:51.817Z,10.90
2019-01-11T23:16:35.730Z,11.60
2019-01-11T23:19:06.265Z,10.70
2019-01-11T23:21:36.408Z,10.20
2019-01-11T23:24:06.604Z,10.00
2019-01-11T23:26:36.850Z,10.83
2019-01-11T23:29:07.159Z,10.57
2019-01-11T23:31:37.216Z,13.70
2019-01-11T23:34:07.458Z,9.83
2019-01-11T23:36:37.676Z,10.17
2019-01-11T23:39:08.747Z,9.77
2019-01-11T23:41:40.602Z,9.90
2019-01-11T23:44:10.811Z,10.87
2019-01-11T23:46:41.151Z,11.20
2019-01-11T23:49:11.214Z,11.37
2019-01-11T23:51:41.404Z,10.63
2019-01-11T23:54:11.524Z,9.27
2019-01-11T23:56:41.823Z,11.20
2019-01-11T23:59:12.335Z,10.63
